sensor_id;sensor_type;location;lat;lon;timestamp;pressure;altitude;pressure_sealevel;temperature;humidity
2188;BME280;1100;52.014;8.540;2024-01-30T00:00:04;101342.09;;;1.94;87.69
2188;BME280;1100;52.014;8.540;2024-01-30T00:02:30;101337.47;;;1.98;87.70
2188;BME280;1100;52.014;8.540;2024-01-30T00:04:55;101335.91;;;1.97;87.53
2188;BME280;1100;52.014;8.540;2024-01-30T00:07:21;101336.25;;;1.96;87.81
2188;BME280;1100;52.014;8.540;2024-01-30T00:09:47;101334.63;;;1.95;87.78
2188;BME280;1100;52.014;8.540;2024-01-30T00:12:13;101336.25;;;1.96;88.17
2188;BME280;1100;52.014;8.540;2024-01-30T00:14:38;101331.88;;;1.95;87.72
2188;BME280;1100;52.014;8.540;2024-01-30T00:17:06;101335.44;;;1.95;87.83
2188;BME280;1100;52.014;8.540;2024-01-30T00:19:31;101331.47;;;1.93;87.94
2188;BME280;1100;52.014;8.540;2024-01-30T00:21:57;101329.84;;;1.92;88.22
2188;BME280;1100;52.014;8.540;2024-01-30T00:24:22;101333.75;;;1.91;88.02
2188;BME280;1100;52.014;8.540;2024-01-30T00:26:47;101334.78;;;1.86;87.66
2188;BME280;1100;52.014;8.540;2024-01-30T00:29:13;101324.50;;;1.83;88.19
2188;BME280;1100;52.014;8.540;2024-01-30T00:31:44;101329.31;;;1.86;88.64
2188;BME280;1100;52.014;8.540;2024-01-30T00:34:09;101332.59;;;1.92;88.32
2188;BME280;1100;52.014;8.540;2024-01-30T00:36:35;101332.59;;;1.92;88.07
2188;BME280;1100;52.014;8.540;2024-01-30T00:39:00;101328.94;;;1.88;88.22
2188;BME280;1100;52.014;8.540;2024-01-30T00:41:25;101324.16;;;1.84;88.44
2188;BME280;1100;52.014;8.540;2024-01-30T00:43:51;101328.25;;;1.91;88.70
2188;BME280;1100;52.014;8.540;2024-01-30T00:46:17;101328.94;;;1.88;88.61
2188;BME280;1100;52.014;8.540;2024-01-30T00:48:42;101329.66;;;1.84;88.41
2188;BME280;1100;52.014;8.540;2024-01-30T00:51:07;101328.75;;;1.80;88.96
2188;BME280;1100;52.014;8.540;2024-01-30T00:53:33;101324.88;;;1.81;88.48
2188;BME280;1100;52.014;8.540;2024-01-30T00:55:58;101331.84;;;1.79;88.38
2188;BME280;1100;52.014;8.540;2024-01-30T00:58:23;101333.78;;;1.78;88.57
2188;BME280;1100;52.014;8.540;2024-01-30T01:00:48;101336.72;;;1.85;88.96
2188;BME280;1100;52.014;8.540;2024-01-30T01:03:14;101326.56;;;1.86;89.37
2188;BME280;1100;52.014;8.540;2024-01-30T01:05:39;101332.16;;;1.90;88.82
2188;BME280;1100;52.014;8.540;2024-01-30T01:08:05;101334.91;;;1.90;89.13
2188;BME280;1100;52.014;8.540;2024-01-30T01:10:30;101338.56;;;1.81;88.64
2188;BME280;1100;52.014;8.540;2024-01-30T01:12:55;101332.97;;;1.78;88.70
2188;BME280;1100;52.014;8.540;2024-01-30T01:15:21;101333.25;;;1.72;88.84
2188;BME280;1100;52.014;8.540;2024-01-30T01:17:46;101334.38;;;1.71;88.81
2188;BME280;1100;52.014;8.540;2024-01-30T01:20:11;101329.81;;;1.76;89.18
2188;BME280;1100;52.014;8.540;2024-01-30T01:22:37;101330.34;;;1.81;89.79
2188;BME280;1100;52.014;8.540;2024-01-30T01:25:04;101325.50;;;1.91;89.13
2188;BME280;1100;52.014;8.540;2024-01-30T01:27:32;101320.88;;;1.79;89.19
2188;BME280;1100;52.014;8.540;2024-01-30T01:29:58;101327.84;;;1.76;89.38
2188;BME280;1100;52.014;8.540;2024-01-30T01:32:23;101323.75;;;1.70;88.85
2188;BME280;1100;52.014;8.540;2024-01-30T01:34:48;101324.22;;;1.72;89.30
2188;BME280;1100;52.014;8.540;2024-01-30T01:37:13;101321.81;;;1.70;89.49
2188;BME280;1100;52.014;8.540;2024-01-30T01:39:39;101312.34;;;1.68;89.48
2188;BME280;1100;52.014;8.540;2024-01-30T01:42:04;101314.44;;;1.58;89.41
2188;BME280;1100;52.014;8.540;2024-01-30T01:44:29;101318.06;;;1.63;89.76
2188;BME280;1100;52.014;8.540;2024-01-30T01:46:55;101311.00;;;1.61;89.34
2188;BME280;1100;52.014;8.540;2024-01-30T01:49:24;101312.47;;;1.59;89.93
2188;BME280;1100;52.014;8.540;2024-01-30T01:51:50;101307.25;;;1.54;89.48
2188;BME280;1100;52.014;8.540;2024-01-30T01:54:17;101302.66;;;1.58;89.97
2188;BME280;1100;52.014;8.540;2024-01-30T01:56:42;101297.19;;;1.58;89.81
2188;BME280;1100;52.014;8.540;2024-01-30T01:59:09;101305.75;;;1.56;89.65
2188;BME280;1100;52.014;8.540;2024-01-30T02:01:36;101300.63;;;1.55;89.99
2188;BME280;1100;52.014;8.540;2024-01-30T02:04:02;101290.69;;;1.50;89.98
2188;BME280;1100;52.014;8.540;2024-01-30T02:06:27;101300.28;;;1.56;90.10
2188;BME280;1100;52.014;8.540;2024-01-30T02:08:54;101301.06;;;1.57;89.94
2188;BME280;1100;52.014;8.540;2024-01-30T02:11:20;101292.75;;;1.53;90.24
2188;BME280;1100;52.014;8.540;2024-01-30T02:13:45;101293.19;;;1.55;90.26
2188;BME280;1100;52.014;8.540;2024-01-30T02:16:10;101298.56;;;1.52;90.40
2188;BME280;1100;52.014;8.540;2024-01-30T02:18:36;101292.41;;;1.55;90.29
2188;BME280;1100;52.014;8.540;2024-01-30T02:21:07;101286.56;;;1.56;90.00
2188;BME280;1100;52.014;8.540;2024-01-30T02:23:33;101291.50;;;1.51;90.20
2188;BME280;1100;52.014;8.540;2024-01-30T02:25:59;101289.53;;;1.51;90.31
2188;BME280;1100;52.014;8.540;2024-01-30T02:28:25;101285.91;;;1.47;90.44
2188;BME280;1100;52.014;8.540;2024-01-30T02:30:51;101285.31;;;1.54;90.63
2188;BME280;1100;52.014;8.540;2024-01-30T02:33:16;101279.72;;;1.50;90.47
2188;BME280;1100;52.014;8.540;2024-01-30T02:35:41;101278.47;;;1.60;90.71
2188;BME280;1100;52.014;8.540;2024-01-30T02:38:07;101283.94;;;1.60;90.37
2188;BME280;1100;52.014;8.540;2024-01-30T02:40:32;101275.72;;;1.60;91.03
2188;BME280;1100;52.014;8.540;2024-01-30T02:42:59;101272.06;;;1.56;90.53
2188;BME280;1100;52.014;8.540;2024-01-30T02:45:25;101265.84;;;1.71;91.11
2188;BME280;1100;52.014;8.540;2024-01-30T02:47:50;101260.81;;;1.73;91.26
2188;BME280;1100;52.014;8.540;2024-01-30T02:50:16;101263.16;;;1.88;91.04
2188;BME280;1100;52.014;8.540;2024-01-30T02:52:41;101266.47;;;1.81;90.80
2188;BME280;1100;52.014;8.540;2024-01-30T02:55:09;101247.63;;;1.79;91.24
2188;BME280;1100;52.014;8.540;2024-01-30T02:57:34;101252.88;;;1.84;91.08
2188;BME280;1100;52.014;8.540;2024-01-30T03:00:00;101251.94;;;1.93;91.37
2188;BME280;1100;52.014;8.540;2024-01-30T03:02:25;101251.00;;;1.89;91.19
2188;BME280;1100;52.014;8.540;2024-01-30T03:04:50;101243.78;;;1.96;91.48
2188;BME280;1100;52.014;8.540;2024-01-30T03:07:15;101252.09;;;2.00;91.34
2188;BME280;1100;52.014;8.540;2024-01-30T03:09:41;101247.88;;;2.19;93.22
2188;BME280;1100;52.014;8.540;2024-01-30T03:12:08;101241.06;;;2.45;92.34
2188;BME280;1100;52.014;8.540;2024-01-30T03:14:33;101234.50;;;2.49;91.95
2188;BME280;1100;52.014;8.540;2024-01-30T03:16:58;101228.16;;;2.45;91.87
2188;BME280;1100;52.014;8.540;2024-01-30T03:19:23;101234.09;;;2.47;91.96
2188;BME280;1100;52.014;8.540;2024-01-30T03:21:49;101225.41;;;2.45;92.09
2188;BME280;1100;52.014;8.540;2024-01-30T03:24:15;101219.31;;;2.52;92.36
2188;BME280;1100;52.014;8.540;2024-01-30T03:26:40;101219.19;;;2.65;93.24
2188;BME280;1100;52.014;8.540;2024-01-30T03:29:05;101217.03;;;2.90;93.64
2188;BME280;1100;52.014;8.540;2024-01-30T03:31:31;101210.97;;;3.20;93.77
2188;BME280;1100;52.014;8.540;2024-01-30T03:33:57;101225.75;;;3.52;94.59
2188;BME280;1100;52.014;8.540;2024-01-30T03:36:22;101213.88;;;4.10;97.37
2188;BME280;1100;52.014;8.540;2024-01-30T03:38:47;101212.19;;;4.80;95.37
2188;BME280;1100;52.014;8.540;2024-01-30T03:41:12;101210.94;;;5.04;94.96
2188;BME280;1100;52.014;8.540;2024-01-30T03:43:38;101212.13;;;5.03;93.69
2188;BME280;1100;52.014;8.540;2024-01-30T03:46:03;101202.72;;;5.08;94.54
2188;BME280;1100;52.014;8.540;2024-01-30T03:48:29;101209.78;;;5.36;95.12
2188;BME280;1100;52.014;8.540;2024-01-30T03:50:54;101207.13;;;5.47;94.72
2188;BME280;1100;52.014;8.540;2024-01-30T03:53:20;101208.06;;;5.58;95.51
2188;BME280;1100;52.014;8.540;2024-01-30T03:55:45;101194.56;;;5.88;96.09
2188;BME280;1100;52.014;8.540;2024-01-30T03:58:11;101200.41;;;6.20;96.02
2188;BME280;1100;52.014;8.540;2024-01-30T04:00:36;101205.25;;;6.34;95.07
2188;BME280;1100;52.014;8.540;2024-01-30T04:03:01;101200.25;;;6.55;95.65
2188;BME280;1100;52.014;8.540;2024-01-30T04:05:27;101193.59;;;6.59;94.65
2188;BME280;1100;52.014;8.540;2024-01-30T04:07:52;101187.19;;;6.48;94.16
2188;BME280;1100;52.014;8.540;2024-01-30T04:10:17;101188.31;;;6.40;94.51
2188;BME280;1100;52.014;8.540;2024-01-30T04:12:43;101187.56;;;6.46;95.16
2188;BME280;1100;52.014;8.540;2024-01-30T04:15:08;101185.97;;;6.42;94.77
2188;BME280;1100;52.014;8.540;2024-01-30T04:17:33;101189.56;;;6.46;94.81
2188;BME280;1100;52.014;8.540;2024-01-30T04:19:59;101179.28;;;6.43;94.57
2188;BME280;1100;52.014;8.540;2024-01-30T04:22:24;101190.41;;;6.54;95.31
2188;BME280;1100;52.014;8.540;2024-01-30T04:24:49;101185.72;;;6.65;95.31
2188;BME280;1100;52.014;8.540;2024-01-30T04:27:15;101187.75;;;6.72;95.04
2188;BME280;1100;52.014;8.540;2024-01-30T04:29:40;101195.63;;;6.66;94.56
2188;BME280;1100;52.014;8.540;2024-01-30T04:32:05;101188.78;;;6.53;94.50
2188;BME280;1100;52.014;8.540;2024-01-30T04:34:31;101183.34;;;6.64;94.79
2188;BME280;1100;52.014;8.540;2024-01-30T04:36:56;101190.75;;;6.48;94.03
2188;BME280;1100;52.014;8.540;2024-01-30T04:39:21;101184.19;;;6.15;93.52
2188;BME280;1100;52.014;8.540;2024-01-30T04:41:47;101185.09;;;5.89;93.50
2188;BME280;1100;52.014;8.540;2024-01-30T04:44:13;101188.03;;;5.65;93.42
2188;BME280;1100;52.014;8.540;2024-01-30T04:46:38;101193.31;;;5.43;93.36
2188;BME280;1100;52.014;8.540;2024-01-30T04:49:03;101187.47;;;5.18;93.22
2188;BME280;1100;52.014;8.540;2024-01-30T04:51:29;101198.28;;;4.99;93.38
2188;BME280;1100;52.014;8.540;2024-01-30T04:53:55;101191.78;;;4.84;93.61
2188;BME280;1100;52.014;8.540;2024-01-30T04:56:20;101197.19;;;4.77;93.86
2188;BME280;1100;52.014;8.540;2024-01-30T04:58:45;101193.59;;;4.73;93.99
2188;BME280;1100;52.014;8.540;2024-01-30T05:01:15;101202.59;;;4.70;93.90
2188;BME280;1100;52.014;8.540;2024-01-30T05:03:40;101189.03;;;4.57;93.29
2188;BME280;1100;52.014;8.540;2024-01-30T05:06:05;101201.44;;;4.44;93.59
2188;BME280;1100;52.014;8.540;2024-01-30T05:08:31;101193.41;;;4.35;93.20
2188;BME280;1100;52.014;8.540;2024-01-30T05:11:00;101193.97;;;4.21;93.45
2188;BME280;1100;52.014;8.540;2024-01-30T05:13:25;101194.59;;;4.10;93.75
2188;BME280;1100;52.014;8.540;2024-01-30T05:15:50;101189.53;;;4.13;93.65
2188;BME280;1100;52.014;8.540;2024-01-30T05:18:16;101189.09;;;4.10;94.14
2188;BME280;1100;52.014;8.540;2024-01-30T05:20:41;101193.78;;;4.10;93.67
2188;BME280;1100;52.014;8.540;2024-01-30T05:23:06;101190.41;;;3.97;93.10
2188;BME280;1100;52.014;8.540;2024-01-30T05:25:32;101193.50;;;3.92;93.62
2188;BME280;1100;52.014;8.540;2024-01-30T05:27:57;101190.59;;;3.84;93.50
2188;BME280;1100;52.014;8.540;2024-01-30T05:30:22;101182.66;;;3.79;93.84
2188;BME280;1100;52.014;8.540;2024-01-30T05:32:47;101184.06;;;3.93;94.46
2188;BME280;1100;52.014;8.540;2024-01-30T05:35:13;101178.09;;;3.87;93.79
2188;BME280;1100;52.014;8.540;2024-01-30T05:37:38;101187.81;;;3.81;93.52
2188;BME280;1100;52.014;8.540;2024-01-30T05:40:04;101182.09;;;3.70;93.70
2188;BME280;1100;52.014;8.540;2024-01-30T05:42:30;101171.69;;;3.59;93.91
2188;BME280;1100;52.014;8.540;2024-01-30T05:44:55;101173.41;;;3.68;93.97
2188;BME280;1100;52.014;8.540;2024-01-30T05:47:20;101175.81;;;3.69;93.91
2188;BME280;1100;52.014;8.540;2024-01-30T05:49:46;101178.31;;;3.78;94.99
2188;BME280;1100;52.014;8.540;2024-01-30T05:52:11;101166.72;;;3.89;94.22
2188;BME280;1100;52.014;8.540;2024-01-30T05:54:36;101162.91;;;3.97;94.71
2188;BME280;1100;52.014;8.540;2024-01-30T05:57:02;101174.41;;;4.03;94.62
2188;BME280;1100;52.014;8.540;2024-01-30T05:59:27;101166.91;;;3.99;94.69
2188;BME280;1100;52.014;8.540;2024-01-30T06:01:52;101159.78;;;3.98;94.25
2188;BME280;1100;52.014;8.540;2024-01-30T06:04:18;101168.72;;;3.92;94.27
2188;BME280;1100;52.014;8.540;2024-01-30T06:06:44;101166.03;;;3.95;94.48
2188;BME280;1100;52.014;8.540;2024-01-30T06:09:09;101164.00;;;3.92;94.90
2188;BME280;1100;52.014;8.540;2024-01-30T06:11:34;101166.59;;;4.05;95.01
2188;BME280;1100;52.014;8.540;2024-01-30T06:14:00;101171.22;;;4.24;95.51
2188;BME280;1100;52.014;8.540;2024-01-30T06:16:25;101168.78;;;4.19;94.76
2188;BME280;1100;52.014;8.540;2024-01-30T06:18:54;101161.66;;;4.14;94.74
2188;BME280;1100;52.014;8.540;2024-01-30T06:21:20;101169.91;;;4.41;96.95
2188;BME280;1100;52.014;8.540;2024-01-30T06:23:45;101156.19;;;4.72;96.09
2188;BME280;1100;52.014;8.540;2024-01-30T06:26:11;101154.75;;;4.82;95.58
2188;BME280;1100;52.014;8.540;2024-01-30T06:28:36;101149.09;;;4.71;95.42
2188;BME280;1100;52.014;8.540;2024-01-30T06:31:01;101150.31;;;4.73;95.83
2188;BME280;1100;52.014;8.540;2024-01-30T06:33:27;101146.91;;;4.84;96.27
2188;BME280;1100;52.014;8.540;2024-01-30T06:35:52;101151.50;;;5.03;96.39
2188;BME280;1100;52.014;8.540;2024-01-30T06:38:17;101157.81;;;5.07;95.76
2188;BME280;1100;52.014;8.540;2024-01-30T06:40:43;101157.44;;;5.09;96.72
2188;BME280;1100;52.014;8.540;2024-01-30T06:43:08;101162.59;;;5.10;96.20
2188;BME280;1100;52.014;8.540;2024-01-30T06:45:33;101153.19;;;5.15;96.15
2188;BME280;1100;52.014;8.540;2024-01-30T06:48:00;101157.25;;;5.25;97.33
2188;BME280;1100;52.014;8.540;2024-01-30T06:50:25;101157.06;;;5.41;97.11
2188;BME280;1100;52.014;8.540;2024-01-30T06:52:51;101164.22;;;5.49;96.81
2188;BME280;1100;52.014;8.540;2024-01-30T06:55:16;101171.50;;;5.69;98.19
2188;BME280;1100;52.014;8.540;2024-01-30T06:57:41;101163.22;;;6.10;98.27
2188;BME280;1100;52.014;8.540;2024-01-30T07:00:07;101166.88;;;6.22;96.77
2188;BME280;1100;52.014;8.540;2024-01-30T07:02:32;101165.91;;;6.03;95.98
2188;BME280;1100;52.014;8.540;2024-01-30T07:04:58;101157.03;;;5.79;95.96
2188;BME280;1100;52.014;8.540;2024-01-30T07:07:23;101154.09;;;5.61;95.81
2188;BME280;1100;52.014;8.540;2024-01-30T07:09:49;101161.44;;;5.46;95.84
2188;BME280;1100;52.014;8.540;2024-01-30T07:12:17;101156.19;;;5.33;95.74
2188;BME280;1100;52.014;8.540;2024-01-30T07:14:43;101160.75;;;5.22;95.65
2188;BME280;1100;52.014;8.540;2024-01-30T07:17:08;101163.41;;;5.15;96.03
2188;BME280;1100;52.014;8.540;2024-01-30T07:19:33;101165.84;;;5.20;96.39
2188;BME280;1100;52.014;8.540;2024-01-30T07:22:00;101170.56;;;5.19;96.03
2188;BME280;1100;52.014;8.540;2024-01-30T07:24:25;101169.13;;;5.29;96.85
2188;BME280;1100;52.014;8.540;2024-01-30T07:26:51;101166.41;;;5.33;96.31
2188;BME280;1100;52.014;8.540;2024-01-30T07:29:16;101177.06;;;5.34;96.74
2188;BME280;1100;52.014;8.540;2024-01-30T07:31:42;101168.59;;;5.54;96.99
2188;BME280;1100;52.014;8.540;2024-01-30T07:34:08;101170.69;;;5.65;97.25
2188;BME280;1100;52.014;8.540;2024-01-30T07:36:34;101172.69;;;6.09;97.99
2188;BME280;1100;52.014;8.540;2024-01-30T07:38:59;101173.72;;;6.39;97.49
2188;BME280;1100;52.014;8.540;2024-01-30T07:41:24;101169.00;;;6.40;96.97
2188;BME280;1100;52.014;8.540;2024-01-30T07:43:50;101173.28;;;6.33;96.35
2188;BME280;1100;52.014;8.540;2024-01-30T07:46:15;101177.88;;;6.18;95.95
2188;BME280;1100;52.014;8.540;2024-01-30T07:48:41;101175.72;;;5.97;96.19
2188;BME280;1100;52.014;8.540;2024-01-30T07:51:06;101168.09;;;5.83;95.81
2188;BME280;1100;52.014;8.540;2024-01-30T07:53:31;101161.22;;;5.66;96.09
2188;BME280;1100;52.014;8.540;2024-01-30T07:55:56;101173.78;;;5.59;96.13
2188;BME280;1100;52.014;8.540;2024-01-30T07:58:22;101165.88;;;5.58;96.00
2188;BME280;1100;52.014;8.540;2024-01-30T08:00:49;101171.34;;;5.54;96.40
2188;BME280;1100;52.014;8.540;2024-01-30T08:03:14;101171.34;;;5.51;95.98
2188;BME280;1100;52.014;8.540;2024-01-30T08:05:41;101173.34;;;5.54;96.37
2188;BME280;1100;52.014;8.540;2024-01-30T08:08:07;101178.50;;;5.59;96.65
2188;BME280;1100;52.014;8.540;2024-01-30T08:10:32;101154.72;;;5.85;97.08
2188;BME280;1100;52.014;8.540;2024-01-30T08:12:57;101164.00;;;6.07;97.22
2188;BME280;1100;52.014;8.540;2024-01-30T08:15:22;101156.25;;;6.24;97.31
2188;BME280;1100;52.014;8.540;2024-01-30T08:17:48;101159.81;;;6.28;96.43
2188;BME280;1100;52.014;8.540;2024-01-30T08:20:13;101148.41;;;6.30;96.75
2188;BME280;1100;52.014;8.540;2024-01-30T08:22:39;101154.88;;;6.52;97.76
2188;BME280;1100;52.014;8.540;2024-01-30T08:25:07;101144.78;;;6.82;97.81
2188;BME280;1100;52.014;8.540;2024-01-30T08:27:34;101153.22;;;7.15;97.83
2188;BME280;1100;52.014;8.540;2024-01-30T08:30:01;101158.03;;;7.47;97.65
2188;BME280;1100;52.014;8.540;2024-01-30T08:32:26;101149.38;;;7.63;97.13
2188;BME280;1100;52.014;8.540;2024-01-30T08:34:52;101162.84;;;7.79;97.17
2188;BME280;1100;52.014;8.540;2024-01-30T08:37:17;101173.16;;;7.90;97.23
2188;BME280;1100;52.014;8.540;2024-01-30T08:39:43;101168.03;;;8.06;96.76
2188;BME280;1100;52.014;8.540;2024-01-30T08:42:09;101169.59;;;8.15;96.85
2188;BME280;1100;52.014;8.540;2024-01-30T08:44:35;101186.22;;;8.22;96.59
2188;BME280;1100;52.014;8.540;2024-01-30T08:47:00;101180.69;;;8.22;96.45
2188;BME280;1100;52.014;8.540;2024-01-30T08:49:26;101175.13;;;8.29;96.43
2188;BME280;1100;52.014;8.540;2024-01-30T08:51:51;101178.28;;;8.35;96.36
2188;BME280;1100;52.014;8.540;2024-01-30T08:54:16;101182.63;;;8.40;96.14
2188;BME280;1100;52.014;8.540;2024-01-30T08:56:42;101175.94;;;8.41;95.19
2188;BME280;1100;52.014;8.540;2024-01-30T08:59:08;101179.06;;;8.46;95.44
2188;BME280;1100;52.014;8.540;2024-01-30T09:01:33;101173.53;;;8.50;95.12
2188;BME280;1100;52.014;8.540;2024-01-30T09:03:58;101177.91;;;8.55;95.10
2188;BME280;1100;52.014;8.540;2024-01-30T09:06:23;101174.75;;;8.56;94.99
2188;BME280;1100;52.014;8.540;2024-01-30T09:08:53;101175.13;;;8.66;94.28
2188;BME280;1100;52.014;8.540;2024-01-30T09:11:19;101177.47;;;8.78;94.55
2188;BME280;1100;52.014;8.540;2024-01-30T09:13:44;101179.81;;;8.91;94.33
2188;BME280;1100;52.014;8.540;2024-01-30T09:16:09;101175.81;;;9.03;94.11
2188;BME280;1100;52.014;8.540;2024-01-30T09:18:35;101177.34;;;9.15;94.05
2188;BME280;1100;52.014;8.540;2024-01-30T09:21:00;101174.50;;;9.26;93.59
2188;BME280;1100;52.014;8.540;2024-01-30T09:23:27;101185.19;;;9.38;93.14
2188;BME280;1100;52.014;8.540;2024-01-30T09:25:52;101190.69;;;9.45;92.66
2188;BME280;1100;52.014;8.540;2024-01-30T09:28:18;101181.56;;;9.49;92.23
2188;BME280;1100;52.014;8.540;2024-01-30T09:30:43;101183.16;;;9.46;91.13
2188;BME280;1100;52.014;8.540;2024-01-30T09:33:08;101176.34;;;9.54;91.29
2188;BME280;1100;52.014;8.540;2024-01-30T09:35:34;101177.50;;;9.60;90.83
2188;BME280;1100;52.014;8.540;2024-01-30T09:37:59;101187.44;;;9.58;90.95
2188;BME280;1100;52.014;8.540;2024-01-30T09:40:25;101177.56;;;9.57;90.83
2188;BME280;1100;52.014;8.540;2024-01-30T09:42:51;101185.06;;;9.60;91.15
2188;BME280;1100;52.014;8.540;2024-01-30T09:45:18;101183.06;;;9.60;90.89
2188;BME280;1100;52.014;8.540;2024-01-30T09:47:44;101178.72;;;9.59;90.18
2188;BME280;1100;52.014;8.540;2024-01-30T09:50:11;101179.53;;;9.56;90.92
2188;BME280;1100;52.014;8.540;2024-01-30T09:52:37;101176.00;;;9.52;89.66
2188;BME280;1100;52.014;8.540;2024-01-30T09:55:03;101181.97;;;9.47;89.54
2188;BME280;1100;52.014;8.540;2024-01-30T09:57:29;101174.84;;;9.42;90.08
2188;BME280;1100;52.014;8.540;2024-01-30T09:59:54;101186.34;;;9.41;89.66
2188;BME280;1100;52.014;8.540;2024-01-30T10:02:20;101180.81;;;9.37;88.93
2188;BME280;1100;52.014;8.540;2024-01-30T10:04:50;101181.22;;;9.32;88.69
2188;BME280;1100;52.014;8.540;2024-01-30T10:07:16;101180.47;;;9.28;88.22
2188;BME280;1100;52.014;8.540;2024-01-30T10:09:42;101186.81;;;9.28;88.63
2188;BME280;1100;52.014;8.540;2024-01-30T10:12:08;101190.75;;;9.31;88.68
2188;BME280;1100;52.014;8.540;2024-01-30T10:14:37;101182.41;;;9.34;88.66
2188;BME280;1100;52.014;8.540;2024-01-30T10:17:03;101181.59;;;9.38;88.92
2188;BME280;1100;52.014;8.540;2024-01-30T10:19:29;101174.03;;;9.45;88.07
2188;BME280;1100;52.014;8.540;2024-01-30T10:21:54;101179.47;;;9.64;87.38
2188;BME280;1100;52.014;8.540;2024-01-30T10:24:24;101175.75;;;9.89;87.46
2188;BME280;1100;52.014;8.540;2024-01-30T10:26:49;101175.69;;;10.42;87.10
2188;BME280;1100;52.014;8.540;2024-01-30T10:29:14;101184.44;;;10.48;86.59
2188;BME280;1100;52.014;8.540;2024-01-30T10:31:40;101185.25;;;10.41;87.46
2188;BME280;1100;52.014;8.540;2024-01-30T10:34:05;101186.56;;;10.29;85.93
2188;BME280;1100;52.014;8.540;2024-01-30T10:36:32;101184.19;;;10.27;85.12
2188;BME280;1100;52.014;8.540;2024-01-30T10:39:04;101181.75;;;10.29;85.93
2188;BME280;1100;52.014;8.540;2024-01-30T10:41:34;101178.47;;;10.49;85.02
2188;BME280;1100;52.014;8.540;2024-01-30T10:44:08;101181.47;;;10.66;84.20
2188;BME280;1100;52.014;8.540;2024-01-30T10:46:35;101177.78;;;10.76;83.68
2188;BME280;1100;52.014;8.540;2024-01-30T10:49:02;101176.75;;;10.98;83.05
2188;BME280;1100;52.014;8.540;2024-01-30T10:51:31;101170.06;;;11.26;82.93
2188;BME280;1100;52.014;8.540;2024-01-30T10:53:56;101176.34;;;11.30;81.21
2188;BME280;1100;52.014;8.540;2024-01-30T10:56:23;101165.34;;;11.19;82.50
2188;BME280;1100;52.014;8.540;2024-01-30T10:58:52;101164.50;;;11.26;82.07
2188;BME280;1100;52.014;8.540;2024-01-30T11:01:19;101146.25;;;11.21;81.96
2188;BME280;1100;52.014;8.540;2024-01-30T11:03:48;101161.47;;;11.13;81.87
2188;BME280;1100;52.014;8.540;2024-01-30T11:06:14;101147.59;;;11.09;81.99
2188;BME280;1100;52.014;8.540;2024-01-30T11:08:43;101150.06;;;11.04;81.18
2188;BME280;1100;52.014;8.540;2024-01-30T11:11:09;101142.84;;;11.06;81.39
2188;BME280;1100;52.014;8.540;2024-01-30T11:13:34;101147.81;;;10.91;80.71
2188;BME280;1100;52.014;8.540;2024-01-30T11:16:02;101143.63;;;10.76;81.01
2188;BME280;1100;52.014;8.540;2024-01-30T11:18:31;101139.31;;;10.71;81.27
2188;BME280;1100;52.014;8.540;2024-01-30T11:20:58;101147.72;;;10.64;81.45
2188;BME280;1100;52.014;8.540;2024-01-30T11:23:23;101148.59;;;10.57;81.77
2188;BME280;1100;52.014;8.540;2024-01-30T11:25:49;101145.47;;;10.51;81.82
2188;BME280;1100;52.014;8.540;2024-01-30T11:28:15;101141.53;;;10.45;82.02
2188;BME280;1100;52.014;8.540;2024-01-30T11:30:44;101153.06;;;10.43;81.91
2188;BME280;1100;52.014;8.540;2024-01-30T11:33:11;101149.44;;;10.50;81.98
2188;BME280;1100;52.014;8.540;2024-01-30T11:35:41;101158.19;;;10.52;81.47
2188;BME280;1100;52.014;8.540;2024-01-30T11:38:08;101149.41;;;10.54;81.75
2188;BME280;1100;52.014;8.540;2024-01-30T11:40:36;101150.47;;;10.67;81.53
2188;BME280;1100;52.014;8.540;2024-01-30T11:43:03;101146.44;;;10.72;81.16
2188;BME280;1100;52.014;8.540;2024-01-30T11:45:30;101148.88;;;10.70;81.45
2188;BME280;1100;52.014;8.540;2024-01-30T11:47:56;101147.25;;;10.69;81.36
2188;BME280;1100;52.014;8.540;2024-01-30T11:50:22;101144.91;;;10.67;81.45
2188;BME280;1100;52.014;8.540;2024-01-30T11:52:48;101143.59;;;10.79;81.19
2188;BME280;1100;52.014;8.540;2024-01-30T11:55:14;101151.56;;;10.77;81.25
2188;BME280;1100;52.014;8.540;2024-01-30T11:57:43;101147.91;;;10.84;81.20
2188;BME280;1100;52.014;8.540;2024-01-30T12:00:17;101150.72;;;10.80;81.09
2188;BME280;1100;52.014;8.540;2024-01-30T12:02:44;101142.09;;;10.71;81.18
2188;BME280;1100;52.014;8.540;2024-01-30T12:05:09;101153.69;;;10.62;81.48
2188;BME280;1100;52.014;8.540;2024-01-30T12:07:35;101150.53;;;10.60;81.77
2188;BME280;1100;52.014;8.540;2024-01-30T12:10:01;101146.22;;;10.55;81.69
2188;BME280;1100;52.014;8.540;2024-01-30T12:12:28;101149.84;;;10.52;82.01
2188;BME280;1100;52.014;8.540;2024-01-30T12:14:55;101169.28;;;10.52;82.25
2188;BME280;1100;52.014;8.540;2024-01-30T12:20:06;101147.09;;;10.49;82.38
2188;BME280;1100;52.014;8.540;2024-01-30T12:22:52;101153.84;;;10.48;82.66
2188;BME280;1100;52.014;8.540;2024-01-30T12:25:20;101160.59;;;10.46;82.73
2188;BME280;1100;52.014;8.540;2024-01-30T12:27:48;101171.75;;;10.43;82.78
2188;BME280;1100;52.014;8.540;2024-01-30T12:30:18;101172.16;;;10.41;83.04
2188;BME280;1100;52.014;8.540;2024-01-30T12:32:45;101166.19;;;10.43;83.21
2188;BME280;1100;52.014;8.540;2024-01-30T12:35:15;101168.53;;;10.44;83.30
2188;BME280;1100;52.014;8.540;2024-01-30T12:37:43;101174.09;;;10.44;83.38
2188;BME280;1100;52.014;8.540;2024-01-30T12:40:09;101163.38;;;10.46;83.48
2188;BME280;1100;52.014;8.540;2024-01-30T12:42:35;101172.50;;;10.51;83.54
2188;BME280;1100;52.014;8.540;2024-01-30T12:45:05;101163.72;;;10.52;83.73
2188;BME280;1100;52.014;8.540;2024-01-30T12:47:31;101168.06;;;10.57;83.64
2188;BME280;1100;52.014;8.540;2024-01-30T12:49:56;101169.22;;;10.59;83.73
2188;BME280;1100;52.014;8.540;2024-01-30T12:52:22;101176.75;;;10.59;83.75
2188;BME280;1100;52.014;8.540;2024-01-30T12:54:48;101175.56;;;10.60;83.92
2188;BME280;1100;52.014;8.540;2024-01-30T12:57:14;101176.41;;;10.57;83.89
2188;BME280;1100;52.014;8.540;2024-01-30T12:59:39;101178.78;;;10.55;84.06
2188;BME280;1100;52.014;8.540;2024-01-30T13:02:05;101169.28;;;10.52;84.18
2188;BME280;1100;52.014;8.540;2024-01-30T13:04:31;101172.03;;;10.56;84.35
2188;BME280;1100;52.014;8.540;2024-01-30T13:06:57;101171.59;;;10.57;84.69
2188;BME280;1100;52.014;8.540;2024-01-30T13:09:23;101175.97;;;10.58;84.53
2188;BME280;1100;52.014;8.540;2024-01-30T13:11:50;101181.53;;;10.58;84.34
2188;BME280;1100;52.014;8.540;2024-01-30T13:14:17;101178.78;;;10.55;84.63